createdAt,value
2023-05-14T00:00:59.173Z,4.30
2023-05-14T00:03:30.025Z,4.40
2023-05-14T00:05:58.675Z,4.10
2023-05-14T00:08:26.672Z,4.20
2023-05-14T00:10:54.820Z,4.20
2023-05-14T00:13:23.035Z,4.40
2023-05-14T00:15:51.112Z,4.50
2023-05-14T00:18:19.213Z,4.30
2023-05-14T00:20:47.217Z,4.50
2023-05-14T00:23:15.106Z,4.50
2023-05-14T00:25:43.240Z,4.30
2023-05-14T00:28:11.236Z,4.30
2023-05-14T00:30:40.119Z,4.30
2023-05-14T00:33:08.541Z,4.20
2023-05-14T00:35:36.781Z,4.80
2023-05-14T00:38:05.251Z,4.60
2023-05-14T00:40:33.217Z,4.20
2023-05-14T00:43:01.914Z,5.00
2023-05-14T00:45:29.892Z,4.60
2023-05-14T00:47:58.043Z,4.30
2023-05-14T00:50:26.542Z,4.50
2023-05-14T00:52:54.752Z,4.60
2023-05-14T00:55:23.008Z,4.50
2023-05-14T00:57:51.480Z,4.10
2023-05-14T01:00:19.828Z,4.60
2023-05-14T01:02:47.930Z,4.40
2023-05-14T01:05:16.303Z,4.60
2023-05-14T01:08:09.783Z,4.60
2023-05-14T01:10:56.753Z,4.40
2023-05-14T01:13:53.134Z,4.90
2023-05-14T01:16:27.012Z,4.50
2023-05-14T01:18:59.227Z,4.20
2023-05-14T01:21:43.661Z,4.60
2023-05-14T01:24:11.913Z,4.60
2023-05-14T01:26:39.889Z,4.30
2023-05-14T01:29:23.641Z,4.60
2023-05-14T01:31:54.904Z,4.20
2023-05-14T01:34:28.525Z,4.60
2023-05-14T01:36:58.282Z,4.20
2023-05-14T01:39:27.995Z,4.70
2023-05-14T01:41:56.785Z,4.10
2023-05-14T01:44:25.482Z,4.40
2023-05-14T01:46:53.542Z,4.20
2023-05-14T01:49:21.516Z,4.90
2023-05-14T01:51:49.894Z,4.70
2023-05-14T01:54:17.872Z,4.80
2023-05-14T01:56:46.652Z,4.60
2023-05-14T01:59:15.033Z,4.70
2023-05-14T02:01:42.931Z,4.70
2023-05-14T02:04:11.125Z,5.20
2023-05-14T02:06:42.973Z,4.70
2023-05-14T02:09:11.453Z,4.90
2023-05-14T02:11:40.107Z,4.60
2023-05-14T02:14:07.949Z,4.80
2023-05-14T02:16:36.041Z,4.90
2023-05-14T02:19:04.194Z,4.50
2023-05-14T02:21:32.800Z,4.70
2023-05-14T02:24:01.155Z,4.50
2023-05-14T02:26:29.189Z,5.30
2023-05-14T02:28:57.968Z,4.70
2023-05-14T02:31:26.661Z,4.50
2023-05-14T02:33:54.706Z,4.00
2023-05-14T02:36:22.772Z,4.00
2023-05-14T02:38:50.836Z,4.30
2023-05-14T02:41:19.218Z,4.10
2023-05-14T02:43:47.394Z,4.10
2023-05-14T02:46:16.143Z,4.60
2023-05-14T02:48:44.256Z,4.10
2023-05-14T02:51:12.740Z,4.30
2023-05-14T02:53:40.936Z,4.70
2023-05-14T02:56:09.201Z,4.60
2023-05-14T02:58:37.468Z,4.40
2023-05-14T03:01:05.854Z,4.80
2023-05-14T03:03:38.348Z,4.80
2023-05-14T03:06:07.537Z,4.40
2023-05-14T03:08:35.897Z,4.90
2023-05-14T03:11:04.302Z,4.80
2023-05-14T03:13:32.312Z,4.70
2023-05-14T03:16:01.353Z,4.50
2023-05-14T03:18:30.815Z,4.40
2023-05-14T03:20:58.981Z,4.50
2023-05-14T03:23:27.022Z,4.90
2023-05-14T03:25:55.158Z,4.90
2023-05-14T03:28:26.218Z,4.60
2023-05-14T03:30:54.405Z,4.90
2023-05-14T03:33:22.973Z,5.00
2023-05-14T03:35:51.855Z,4.70
2023-05-14T03:38:21.969Z,5.00
2023-05-14T03:40:50.538Z,4.50
2023-05-14T03:43:18.594Z,4.40
2023-05-14T03:45:48.337Z,4.70
2023-05-14T03:48:18.846Z,4.80
2023-05-14T03:50:47.765Z,4.80
2023-05-14T03:53:16.247Z,5.40
2023-05-14T03:55:44.150Z,4.80
2023-05-14T03:58:14.617Z,5.00
2023-05-14T04:00:43.872Z,4.90
2023-05-14T04:03:12.117Z,4.30
2023-05-14T04:05:40.222Z,4.50
2023-05-14T04:08:08.199Z,4.60
2023-05-14T04:10:36.235Z,4.60
2023-05-14T04:13:04.302Z,4.10
2023-05-14T04:15:36.167Z,4.50
2023-05-14T04:18:04.558Z,4.20
2023-05-14T04:20:32.823Z,4.60
2023-05-14T04:23:00.831Z,4.60
2023-05-14T04:25:28.926Z,4.40
2023-05-14T04:27:56.930Z,4.20
2023-05-14T04:30:24.991Z,4.00
2023-05-14T04:32:53.415Z,4.20
2023-05-14T04:35:24.727Z,4.00
2023-05-14T04:37:53.216Z,4.50
2023-05-14T04:40:22.966Z,4.50
2023-05-14T04:42:51.099Z,4.60
2023-05-14T04:45:19.619Z,4.40
2023-05-14T04:47:47.737Z,4.10
2023-05-14T04:50:16.568Z,4.20
2023-05-14T04:52:44.721Z,3.90
2023-05-14T04:55:14.975Z,4.10
2023-05-14T04:57:42.979Z,4.60
2023-05-14T05:00:12.331Z,4.20
2023-05-14T05:02:40.437Z,4.20
2023-05-14T05:05:09.917Z,4.30
2023-05-14T05:07:37.966Z,4.50
2023-05-14T05:10:07.899Z,4.70
2023-05-14T05:12:35.956Z,4.10
2023-05-14T05:15:05.173Z,4.40
2023-05-14T05:17:33.379Z,4.50
2023-05-14T05:20:01.515Z,4.30
2023-05-14T05:22:29.567Z,4.60
2023-05-14T05:24:58.972Z,4.00
2023-05-14T05:27:27.148Z,4.30
2023-05-14T05:29:55.268Z,4.80
2023-05-14T05:32:23.427Z,4.40
2023-05-14T05:34:52.185Z,4.60
2023-05-14T05:37:20.149Z,4.00
2023-05-14T05:39:48.631Z,4.90
2023-05-14T05:42:16.701Z,4.70
2023-05-14T05:44:44.615Z,4.60
2023-05-14T05:47:12.836Z,5.00
2023-05-14T05:49:40.706Z,4.80
2023-05-14T05:52:08.804Z,4.40
2023-05-14T05:54:36.793Z,4.50
2023-05-14T05:57:05.433Z,4.10
2023-05-14T05:59:33.514Z,4.80
2023-05-14T06:02:01.546Z,5.10
2023-05-14T06:04:29.906Z,4.60
2023-05-14T06:06:58.544Z,4.90
2023-05-14T06:09:26.484Z,4.70
2023-05-14T06:11:54.782Z,4.40
2023-05-14T06:14:23.392Z,4.80
2023-05-14T06:16:51.423Z,4.60
2023-05-14T06:19:19.758Z,5.00
2023-05-14T06:21:47.793Z,4.80
2023-05-14T06:24:16.654Z,4.80
2023-05-14T06:26:44.753Z,4.70
2023-05-14T06:29:13.137Z,4.30
2023-05-14T06:31:41.270Z,4.70
2023-05-14T06:34:09.384Z,4.80
2023-05-14T06:36:37.969Z,5.10
2023-05-14T06:39:06.345Z,4.70
2023-05-14T06:41:34.212Z,4.80
2023-05-14T06:44:02.592Z,4.60
2023-05-14T06:46:30.670Z,5.20
2023-05-14T06:48:59.626Z,4.80
2023-05-14T06:51:28.211Z,4.60
2023-05-14T06:53:56.417Z,4.20
2023-05-14T06:56:24.436Z,4.70
2023-05-14T06:58:52.377Z,4.80
2023-05-14T07:01:20.704Z,5.20
2023-05-14T07:03:48.714Z,5.10
2023-05-14T07:06:16.915Z,4.90
2023-05-14T07:08:48.123Z,5.00
2023-05-14T07:11:16.369Z,4.80
2023-05-14T07:13:44.844Z,4.60
2023-05-14T07:16:14.204Z,4.60
2023-05-14T07:18:44.160Z,4.90
2023-05-14T07:21:14.143Z,5.10
2023-05-14T07:23:43.439Z,5.10
2023-05-14T07:26:13.572Z,4.90
2023-05-14T07:28:43.207Z,4.70
2023-05-14T07:31:12.289Z,4.70
2023-05-14T07:33:40.928Z,5.10
2023-05-14T07:36:12.841Z,5.10
2023-05-14T07:38:41.910Z,4.60
2023-05-14T07:41:11.615Z,4.50
2023-05-14T07:43:42.243Z,5.00
2023-05-14T07:46:11.464Z,4.80
2023-05-14T07:48:40.145Z,5.10
2023-05-14T07:51:09.301Z,4.70
2023-05-14T07:53:39.466Z,4.40
2023-05-14T07:56:09.716Z,4.20
2023-05-14T07:58:39.695Z,4.50
2023-05-14T08:01:09.331Z,4.30
2023-05-14T08:03:38.052Z,4.40
2023-05-14T08:06:07.908Z,4.10
2023-05-14T08:08:37.116Z,3.70
2023-05-14T08:11:05.972Z,3.90
2023-05-14T08:13:34.686Z,4.40
2023-05-14T08:16:04.205Z,4.10
2023-05-14T08:18:32.842Z,4.20
2023-05-14T08:21:03.750Z,3.80
2023-05-14T08:23:32.494Z,3.60
2023-05-14T08:26:01.599Z,3.80
2023-05-14T08:28:29.965Z,3.90
2023-05-14T08:30:57.880Z,4.10
2023-05-14T08:33:26.266Z,3.70
2023-05-14T08:35:54.884Z,3.90
2023-05-14T08:38:23.065Z,3.90
2023-05-14T08:41:00.991Z,3.90
2023-05-14T08:43:47.676Z,3.90
2023-05-14T08:46:20.101Z,3.90
2023-05-14T08:48:58.584Z,3.80
2023-05-14T08:51:28.175Z,3.90
2023-05-14T08:53:59.411Z,3.60
2023-05-14T08:56:32.868Z,3.80
2023-05-14T08:59:01.038Z,4.00
2023-05-14T09:01:30.002Z,3.70
2023-05-14T09:04:01.657Z,3.30
2023-05-14T09:06:31.260Z,3.50
2023-05-14T09:08:59.259Z,3.40
2023-05-14T09:11:27.688Z,3.30
2023-05-14T09:13:55.676Z,3.40
2023-05-14T09:16:26.436Z,3.10
2023-05-14T09:18:55.432Z,3.30
2023-05-14T09:21:23.675Z,3.10
2023-05-14T09:23:55.739Z,3.20
2023-05-14T09:26:26.614Z,3.30
2023-05-14T09:29:05.499Z,3.20
2023-05-14T09:31:34.599Z,3.10
2023-05-14T09:34:02.457Z,3.20
2023-05-14T09:36:31.790Z,3.00
2023-05-14T09:39:00.882Z,3.00
2023-05-14T09:41:29.334Z,3.20
2023-05-14T09:43:58.025Z,3.10
2023-05-14T09:46:30.278Z,3.50
2023-05-14T09:48:58.683Z,2.90
2023-05-14T09:51:26.629Z,3.20
2023-05-14T09:53:54.605Z,3.30
2023-05-14T09:56:22.986Z,2.90
2023-05-14T09:58:51.079Z,3.00
2023-05-14T10:01:20.934Z,3.10
2023-05-14T10:03:50.888Z,3.00
2023-05-14T10:06:25.863Z,2.90
2023-05-14T10:09:00.244Z,3.10
2023-05-14T10:11:33.962Z,3.10
2023-05-14T10:14:18.749Z,3.00
2023-05-14T10:16:56.363Z,3.00
2023-05-14T10:19:26.654Z,2.90
2023-05-14T10:22:05.713Z,3.20
2023-05-14T10:24:35.062Z,3.00
2023-05-14T10:27:03.334Z,3.00
2023-05-14T10:29:37.737Z,2.90
2023-05-14T10:32:09.351Z,2.70
2023-05-14T10:34:46.293Z,3.00
2023-05-14T10:37:26.140Z,2.90
2023-05-14T10:39:56.978Z,2.80
2023-05-14T10:42:40.955Z,2.80
2023-05-14T10:45:14.896Z,2.70
2023-05-14T10:47:46.708Z,2.80
2023-05-14T10:50:16.195Z,2.60
2023-05-14T10:52:46.687Z,2.80
2023-05-14T10:55:16.877Z,3.10
2023-05-14T10:57:46.979Z,2.80
2023-05-14T11:00:16.603Z,2.90
2023-05-14T11:02:45.303Z,2.60
2023-05-14T11:05:17.725Z,2.70
2023-05-14T11:07:49.212Z,2.50
2023-05-14T11:10:22.436Z,2.90
2023-05-14T11:12:52.923Z,2.90
2023-05-14T11:15:23.726Z,2.60
2023-05-14T11:17:53.762Z,2.90
2023-05-14T11:20:22.726Z,3.00
2023-05-14T11:22:54.617Z,2.90
2023-05-14T11:25:25.768Z,2.80
2023-05-14T11:27:58.444Z,2.70
2023-05-14T11:30:26.933Z,3.00
2023-05-14T11:32:57.924Z,3.10
2023-05-14T11:35:27.746Z,2.60
2023-05-14T11:37:55.691Z,3.10
2023-05-14T11:40:23.826Z,3.90
2023-05-14T11:42:53.821Z,4.00
2023-05-14T11:45:27.275Z,3.80
2023-05-14T11:47:56.167Z,3.80
2023-05-14T11:50:24.976Z,3.60
2023-05-14T11:52:57.970Z,3.30
2023-05-14T11:55:26.185Z,3.20
2023-05-14T11:57:54.557Z,3.80
2023-05-14T12:00:24.817Z,3.10
2023-05-14T12:02:53.505Z,2.80
2023-05-14T12:05:22.162Z,3.10
2023-05-14T12:07:50.325Z,2.70
2023-05-14T12:10:18.421Z,3.10
2023-05-14T12:12:48.862Z,2.90
2023-05-14T12:15:17.611Z,2.90
2023-05-14T12:17:52.303Z,2.80
2023-05-14T12:20:20.991Z,2.90
2023-05-14T12:22:49.410Z,2.90
2023-05-14T12:25:17.959Z,2.90
2023-05-14T12:27:45.944Z,3.00
2023-05-14T12:32:46.571Z,2.80
2023-05-14T12:35:14.673Z,2.90
2023-05-14T12:37:43.389Z,2.90
2023-05-14T12:40:12.330Z,2.80
2023-05-14T12:42:40.341Z,2.70
2023-05-14T12:45:08.947Z,2.80
2023-05-14T12:47:37.517Z,2.90
2023-05-14T12:50:06.638Z,3.00
2023-05-14T12:52:39.295Z,2.70
2023-05-14T12:55:09.866Z,2.80
2023-05-14T12:57:39.682Z,2.80
2023-05-14T13:00:13.985Z,2.80
2023-05-14T13:02:43.935Z,2.70
2023-05-14T13:05:15.744Z,2.70
2023-05-14T13:07:50.043Z,2.50
2023-05-14T13:10:24.887Z,2.90
2023-05-14T13:12:57.192Z,2.90
2023-05-14T13:15:28.733Z,2.70
2023-05-14T13:17:59.872Z,2.70
2023-05-14T13:20:32.892Z,2.80
2023-05-14T13:23:04.598Z,2.80
2023-05-14T13:25:33.069Z,2.80
2023-05-14T13:28:01.444Z,2.90
2023-05-14T13:30:30.074Z,3.10
2023-05-14T13:32:59.956Z,2.90
2023-05-14T13:35:28.644Z,2.90
2023-05-14T13:37:57.111Z,2.80
2023-05-14T13:40:25.277Z,3.00
2023-05-14T13:42:53.558Z,2.90
2023-05-14T13:45:22.543Z,3.10
2023-05-14T13:47:51.623Z,2.70
2023-05-14T13:50:21.248Z,2.60
2023-05-14T13:52:49.120Z,2.40
2023-05-14T13:55:17.576Z,2.80
2023-05-14T13:57:45.879Z,2.90
2023-05-14T14:00:15.805Z,2.60
2023-05-14T14:02:43.747Z,2.80
2023-05-14T14:05:11.887Z,3.00
2023-05-14T14:07:40.835Z,2.90
2023-05-14T14:10:10.232Z,3.00
2023-05-14T14:12:38.262Z,2.80
2023-05-14T14:15:07.588Z,2.80
2023-05-14T14:17:36.918Z,2.80
2023-05-14T14:20:08.485Z,2.90
2023-05-14T14:22:37.542Z,3.00
2023-05-14T14:25:07.367Z,3.00
2023-05-14T14:27:38.645Z,2.90
2023-05-14T14:30:15.846Z,2.70
2023-05-14T14:32:49.460Z,2.60
2023-05-14T14:35:19.637Z,2.80
2023-05-14T14:37:52.342Z,2.70
2023-05-14T14:40:20.681Z,2.90
2023-05-14T14:42:48.550Z,2.80
2023-05-14T14:45:16.701Z,2.70
2023-05-14T14:47:46.772Z,2.50
2023-05-14T14:50:15.123Z,2.50
2023-05-14T14:52:46.163Z,2.60
2023-05-14T14:55:14.237Z,2.70
2023-05-14T14:57:42.402Z,2.90
2023-05-14T15:00:12.287Z,2.70
2023-05-14T15:02:43.047Z,2.40
2023-05-14T15:05:11.542Z,2.60
2023-05-14T15:07:39.513Z,2.80
2023-05-14T15:10:08.603Z,2.90
2023-05-14T15:12:36.479Z,2.90
2023-05-14T15:15:05.342Z,2.60
2023-05-14T15:17:33.359Z,2.60
2023-05-14T15:20:01.680Z,2.60
2023-05-14T15:22:30.201Z,2.60
2023-05-14T15:24:58.169Z,2.50
2023-05-14T15:27:27.388Z,2.50
2023-05-14T15:29:55.959Z,2.40
2023-05-14T15:32:26.612Z,2.70
2023-05-14T15:34:56.112Z,2.40
2023-05-14T15:37:24.979Z,2.50
2023-05-14T15:39:53.150Z,2.40
2023-05-14T15:42:21.390Z,2.60
2023-05-14T15:44:49.394Z,2.40
2023-05-14T15:47:17.473Z,2.50
2023-05-14T15:49:45.542Z,2.40
2023-05-14T15:52:14.197Z,2.20
2023-05-14T15:54:42.679Z,2.50
2023-05-14T15:57:16.333Z,2.30
2023-05-14T15:59:48.830Z,2.60
2023-05-14T16:02:19.930Z,2.60
2023-05-14T16:04:50.090Z,2.60
2023-05-14T16:07:20.159Z,2.30
2023-05-14T16:09:54.802Z,2.30
2023-05-14T16:12:26.366Z,2.30
2023-05-14T16:14:58.500Z,2.50
2023-05-14T16:17:32.450Z,2.20
2023-05-14T16:20:05.435Z,2.50
2023-05-14T16:22:37.414Z,2.50
2023-05-14T16:25:07.813Z,2.30
2023-05-14T16:27:36.556Z,2.40
2023-05-14T16:30:08.094Z,2.40
2023-05-14T16:32:55.060Z,2.60
2023-05-14T16:35:23.226Z,2.70
2023-05-14T16:37:51.313Z,2.60
2023-05-14T16:40:20.109Z,2.40
2023-05-14T16:42:49.264Z,2.80
2023-05-14T16:45:17.906Z,2.50
2023-05-14T16:47:46.067Z,2.70
2023-05-14T16:50:14.051Z,2.70
2023-05-14T16:52:41.908Z,2.60
2023-05-14T16:55:10.051Z,2.70
2023-05-14T16:57:38.049Z,2.70
2023-05-14T17:00:07.830Z,2.40
2023-05-14T17:02:36.129Z,2.60
2023-05-14T17:05:05.748Z,2.50
2023-05-14T17:07:33.750Z,2.50
2023-05-14T17:10:01.992Z,2.70
2023-05-14T17:12:30.039Z,3.00
2023-05-14T17:14:58.617Z,3.00
2023-05-14T17:17:26.584Z,3.10
2023-05-14T17:19:54.666Z,4.00
2023-05-14T17:22:22.685Z,4.60
2023-05-14T17:24:50.690Z,4.20
2023-05-14T17:27:18.561Z,3.70
2023-05-14T17:29:46.425Z,4.10
2023-05-14T17:32:14.408Z,4.10
2023-05-14T17:34:42.363Z,3.80
2023-05-14T17:37:10.644Z,4.10
2023-05-14T17:39:38.539Z,3.90
2023-05-14T17:42:08.969Z,3.80
2023-05-14T17:44:36.912Z,3.90
2023-05-14T17:47:07.264Z,3.70
2023-05-14T17:49:35.839Z,3.60
2023-05-14T17:52:04.456Z,3.60
2023-05-14T17:54:32.586Z,3.30
2023-05-14T17:57:00.868Z,3.50
2023-05-14T17:59:29.151Z,3.40
2023-05-14T18:01:57.172Z,3.40
2023-05-14T18:04:25.186Z,3.30
2023-05-14T18:06:53.470Z,3.20
2023-05-14T18:09:21.540Z,3.30
2023-05-14T18:11:49.846Z,3.40
2023-05-14T18:14:18.811Z,3.30
2023-05-14T18:16:47.179Z,3.10
2023-05-14T18:19:15.866Z,3.70
2023-05-14T18:21:46.816Z,3.20
2023-05-14T18:24:14.913Z,3.70
2023-05-14T18:26:43.096Z,3.10
2023-05-14T18:29:11.250Z,3.20
2023-05-14T18:31:39.283Z,3.30
2023-05-14T18:34:07.280Z,3.40
2023-05-14T18:36:35.797Z,3.10
2023-05-14T18:39:04.340Z,3.00
2023-05-14T18:41:52.189Z,3.00
2023-05-14T18:44:20.682Z,2.60
2023-05-14T18:46:49.739Z,2.70
2023-05-14T18:49:18.671Z,2.40
2023-05-14T18:51:47.131Z,2.60
2023-05-14T18:54:16.260Z,2.50
2023-05-14T18:56:46.816Z,2.60
2023-05-14T18:59:16.070Z,3.00
2023-05-14T19:01:44.164Z,3.00
2023-05-14T19:04:12.720Z,3.20
2023-05-14T19:06:40.804Z,3.50
2023-05-14T19:09:09.849Z,3.70
2023-05-14T19:11:38.569Z,3.90
2023-05-14T19:14:07.168Z,3.90
2023-05-14T19:16:36.067Z,3.60
2023-05-14T19:19:04.554Z,3.40
2023-05-14T19:21:32.784Z,3.30
2023-05-14T19:24:03.132Z,3.30
2023-05-14T19:26:31.719Z,3.40
2023-05-14T19:29:00.114Z,4.00
2023-05-14T19:31:28.930Z,3.10
2023-05-14T19:33:57.256Z,3.80
2023-05-14T19:36:25.527Z,3.40
2023-05-14T19:38:53.918Z,3.40
2023-05-14T19:41:23.161Z,3.60
2023-05-14T19:43:51.229Z,3.30
2023-05-14T19:46:19.385Z,3.50
2023-05-14T19:48:48.782Z,3.50
2023-05-14T19:51:17.029Z,3.30
2023-05-14T19:53:45.519Z,3.50
2023-05-14T19:56:13.487Z,3.60
2023-05-14T19:58:41.977Z,3.30
2023-05-14T20:01:10.369Z,3.30
2023-05-14T20:03:39.303Z,3.30
2023-05-14T20:06:08.124Z,3.40
2023-05-14T20:08:35.996Z,3.00
2023-05-14T20:11:04.246Z,3.20
2023-05-14T20:13:33.094Z,3.30
2023-05-14T20:16:01.474Z,3.40
2023-05-14T20:18:29.967Z,3.60
2023-05-14T20:20:59.743Z,3.60
2023-05-14T20:23:28.118Z,3.40
2023-05-14T20:25:57.626Z,3.30
2023-05-14T20:28:26.318Z,3.50
2023-05-14T20:30:55.476Z,3.50
2023-05-14T20:33:23.582Z,3.20
2023-05-14T20:35:51.897Z,3.40
2023-05-14T20:38:20.645Z,3.60
2023-05-14T20:40:49.021Z,3.30
2023-05-14T20:43:17.401Z,3.40
2023-05-14T20:45:45.781Z,3.10
2023-05-14T20:48:16.487Z,3.20
2023-05-14T20:50:44.799Z,3.10
2023-05-14T20:53:13.074Z,3.40
2023-05-14T20:55:41.660Z,3.20
2023-05-14T20:58:09.784Z,3.10
2023-05-14T21:00:37.904Z,3.40
2023-05-14T21:03:06.282Z,3.10
2023-05-14T21:05:35.137Z,3.00
2023-05-14T21:08:03.241Z,3.10
2023-05-14T21:10:31.333Z,3.00
2023-05-14T21:12:59.303Z,3.30
2023-05-14T21:15:27.710Z,3.00
2023-05-14T21:17:56.074Z,3.10
2023-05-14T21:20:24.830Z,3.10
2023-05-14T21:22:52.713Z,2.90
2023-05-14T21:25:20.978Z,3.20
2023-05-14T21:27:49.158Z,3.20
2023-05-14T21:30:17.293Z,2.90
2023-05-14T21:32:45.642Z,3.20
2023-05-14T21:35:13.983Z,2.90
2023-05-14T21:37:42.147Z,3.20
2023-05-14T21:40:12.599Z,3.00
2023-05-14T21:42:41.015Z,2.80
2023-05-14T21:45:10.270Z,3.10
2023-05-14T21:47:38.668Z,3.00
2023-05-14T21:50:08.036Z,3.20
2023-05-14T21:52:38.290Z,3.00
2023-05-14T21:55:07.262Z,2.90
2023-05-14T21:57:35.530Z,3.00
2023-05-14T22:00:07.985Z,3.10
2023-05-14T22:02:35.959Z,3.10
2023-05-14T22:05:05.326Z,3.10
2023-05-14T22:07:33.309Z,2.90
2023-05-14T22:10:01.628Z,3.30
2023-05-14T22:12:29.821Z,3.40
2023-05-14T22:14:57.682Z,3.00
2023-05-14T22:17:28.354Z,3.40
2023-05-14T22:19:57.025Z,3.20
2023-05-14T22:22:25.104Z,3.30
2023-05-14T22:24:53.615Z,3.10
2023-05-14T22:27:21.715Z,3.30
2023-05-14T22:29:49.596Z,3.40
2023-05-14T22:32:17.956Z,3.30
2023-05-14T22:34:45.931Z,3.40
2023-05-14T22:37:14.073Z,3.10
2023-05-14T22:39:43.004Z,3.40
2023-05-14T22:42:11.172Z,3.20
2023-05-14T22:44:39.199Z,3.10
2023-05-14T22:47:07.443Z,3.40
2023-05-14T22:49:35.360Z,3.30
2023-05-14T22:52:05.857Z,3.30
2023-05-14T22:54:33.894Z,3.10
2023-05-14T22:57:03.705Z,3.30
2023-05-14T22:59:31.878Z,3.40
2023-05-14T23:02:00.042Z,3.40
2023-05-14T23:04:28.542Z,3.50
2023-05-14T23:06:57.923Z,3.20
2023-05-14T23:09:26.109Z,3.40
2023-05-14T23:11:54.201Z,2.90
2023-05-14T23:14:22.764Z,3.10
2023-05-14T23:16:50.848Z,3.10
2023-05-14T23:19:19.075Z,3.20
2023-05-14T23:21:47.589Z,3.20
2023-05-14T23:24:15.799Z,3.30
2023-05-14T23:26:44.371Z,3.20
2023-05-14T23:29:12.736Z,3.10
2023-05-14T23:31:41.563Z,3.30
2023-05-14T23:34:09.788Z,3.20
2023-05-14T23:36:39.853Z,3.40
2023-05-14T23:39:07.905Z,3.30
2023-05-14T23:41:35.857Z,3.30
2023-05-14T23:44:03.952Z,3.40
2023-05-14T23:46:32.549Z,3.40
2023-05-14T23:49:01.456Z,3.30
2023-05-14T23:51:29.688Z,3.00
2023-05-14T23:53:58.741Z,3.20
2023-05-14T23:56:29.402Z,3.30
2023-05-14T23:58:57.890Z,3.30
